Time;durP1;ratioP1;P1;durP2;ratioP2;P2;SDS_P1;SDS_P2;PMS_P1;PMS_P2;Temp;Humidity;BMP_temperature;BMP_pressure;BME280_temperature;BME280_humidity;BME280_pressure;Samples;Min_cycle;Max_cycle;Signal;HPM_P1;HPM_P2
2022/05/10 00:01:36;;;;;;;7.40;6.65;;;14.10;71.40;;;;;;4970443;28;20063;-65
2022/05/10 00:04:04;;;;;;;9.45;7.10;;;14.10;71.80;;;;;;4981061;28;20030;-66
2022/05/10 00:06:35;;;;;;;8.50;7.38;;;14.10;71.40;;;;;;4980235;28;20502;-66
2022/05/10 00:09:01;;;;;;;10.88;7.07;;;14.00;71.80;;;;;;4971538;28;20127;-65
2022/05/10 00:11:26;;;;;;;8.07;7.30;;;13.90;71.60;;;;;;4968921;28;20545;-66
2022/05/10 00:13:52;;;;;;;8.68;7.75;;;13.90;71.80;;;;;;4978594;28;20439;-65
2022/05/10 00:16:18;;;;;;;8.10;7.30;;;13.80;72.00;;;;;;4978122;28;20039;-66
2022/05/10 00:18:45;;;;;;;8.30;7.50;;;13.70;72.10;;;;;;4977499;28;20121;-66
2022/05/10 00:21:23;;;;;;;9.30;7.88;;;13.70;72.20;;;;;;4977598;28;20038;-66
2022/05/10 00:23:48;;;;;;;8.88;7.90;;;13.60;72.50;;;;;;4978725;28;20031;-66
2022/05/10 00:26:14;;;;;;;10.25;8.02;;;13.60;72.60;;;;;;4977472;28;20034;-66
2022/05/10 00:28:40;;;;;;;8.25;7.53;;;13.50;73.00;;;;;;4980450;28;20058;-65
2022/05/10 00:31:08;;;;;;;10.98;8.25;;;13.50;73.00;;;;;;4976404;28;20050;-66
2022/05/10 00:33:34;;;;;;;8.48;7.60;;;13.50;73.20;;;;;;4991431;28;20294;-65
2022/05/10 00:36:00;;;;;;;8.95;7.78;;;13.50;73.20;;;;;;4976482;28;21697;-66
2022/05/10 00:38:32;;;;;;;8.23;7.53;;;13.50;73.10;;;;;;4977361;28;20484;-66
2022/05/10 00:41:23;;;;;;;10.75;9.52;;;13.50;73.20;;;;;;4976933;28;20152;-66
2022/05/10 00:43:55;;;;;;;10.32;9.32;;;13.50;74.40;;;;;;4974473;28;20038;-65
2022/05/10 00:46:37;;;;;;;10.57;9.50;;;13.50;73.50;;;;;;4977321;28;20038;-66
2022/05/10 00:49:21;;;;;;;10.50;9.50;;;13.50;74.20;;;;;;4977846;28;20097;-65
2022/05/10 00:51:53;;;;;;;11.02;9.93;;;13.50;73.80;;;;;;4978197;28;20035;-66
2022/05/10 00:54:44;;;;;;;10.88;9.77;;;13.50;73.00;;;;;;4978582;28;20038;-66
2022/05/10 00:57:34;;;;;;;10.75;9.65;;;13.50;73.80;;;;;;4977168;28;20038;-66
2022/05/10 01:00:06;;;;;;;10.95;9.52;;;13.50;73.70;;;;;;4992802;28;20043;-65
2022/05/10 01:02:47;;;;;;;10.15;9.15;;;13.50;73.20;;;;;;4980700;28;20331;-66
2022/05/10 01:05:27;;;;;;;11.88;9.32;;;13.60;73.50;;;;;;4976717;28;20038;-66
2022/05/10 01:08:04;;;;;;;10.73;9.73;;;13.50;73.00;;;;;;4975529;28;20145;-66
2022/05/10 01:10:32;;;;;;;11.02;9.75;;;13.60;72.60;;;;;;4978037;28;20037;-65
2022/05/10 01:13:14;;;;;;;11.07;9.90;;;13.60;72.70;;;;;;4969268;28;20042;-65
2022/05/10 01:15:48;;;;;;;10.52;9.52;;;13.60;72.90;;;;;;4972898;28;20026;-66
2022/05/10 01:18:14;;;;;;;11.23;9.40;;;13.50;72.70;;;;;;4970030;28;20407;-66
2022/05/10 01:20:43;;;;;;;10.98;9.88;;;13.50;72.40;;;;;;4969992;28;20054;-66
2022/05/10 01:23:24;;;;;;;10.77;9.68;;;13.50;72.60;;;;;;4975037;28;20149;-66
2022/05/10 01:26:19;;;;;;;10.45;9.45;;;13.40;73.30;;;;;;4970883;28;20066;-66
2022/05/10 01:29:02;;;;;;;13.10;9.73;;;13.40;73.50;;;;;;4986237;28;20081;-65
2022/05/10 01:31:33;;;;;;;9.70;8.73;;;13.30;72.90;;;;;;4975303;28;20039;-65
2022/05/10 01:34:12;;;;;;;9.77;8.85;;;13.20;72.90;;;;;;4967691;28;20121;-64
2022/05/10 01:36:46;;;;;;;9.90;8.90;;;13.20;73.50;;;;;;4974542;28;20053;-64
2022/05/10 01:39:33;;;;;;;9.43;8.40;;;13.10;73.40;;;;;;4976757;28;20534;-66
2022/05/10 01:42:12;;;;;;;9.98;8.93;;;13.10;73.90;;;;;;4976168;28;20126;-66
2022/05/10 01:44:47;;;;;;;9.20;8.40;;;13.10;73.50;;;;;;4971441;28;20764;-65
2022/05/10 01:47:26;;;;;;;8.73;7.82;;;13.00;73.50;;;;;;4973629;28;20391;-66
2022/05/10 01:50:22;;;;;;;9.35;8.40;;;13.10;73.50;;;;;;4972018;28;20065;-65
2022/05/10 01:53:07;;;;;;;9.95;8.90;;;13.10;73.50;;;;;;4969151;28;20061;-65
2022/05/10 01:55:42;;;;;;;9.30;8.40;;;13.00;72.80;;;;;;4970394;28;20035;-66
2022/05/10 01:58:07;;;;;;;11.10;8.98;;;13.00;73.50;;;;;;4973952;28;20118;-65
2022/05/10 02:00:34;;;;;;;9.82;8.73;;;12.90;73.00;;;;;;4966356;28;20097;-65
2022/05/10 02:03:15;;;;;;;9.13;8.25;;;12.90;73.20;;;;;;4971465;28;20495;-64
2022/05/10 02:05:44;;;;;;;8.85;7.90;;;12.80;73.50;;;;;;4970131;28;20127;-65
2022/05/10 02:08:23;;;;;;;11.52;9.13;;;12.90;73.60;;;;;;4968981;28;20065;-65
2022/05/10 02:10:53;;;;;;;9.60;8.70;;;12.90;74.20;;;;;;4966371;28;20046;-66
2022/05/10 02:13:28;;;;;;;9.32;8.07;;;12.90;73.60;;;;;;4964387;28;20034;-65
2022/05/10 02:16:30;;;;;;;9.77;8.55;;;12.90;73.70;;;;;;4948172;28;20036;-66
2022/05/10 02:19:10;;;;;;;9.32;8.43;;;12.90;73.50;;;;;;4956977;28;20031;-65
2022/05/10 02:21:45;;;;;;;10.85;8.68;;;12.90;73.50;;;;;;4971962;28;20515;-66
2022/05/10 02:24:23;;;;;;;9.38;8.48;;;12.90;73.30;;;;;;4971612;28;20053;-66
2022/05/10 02:27:01;;;;;;;10.15;8.30;;;12.90;73.30;;;;;;4969058;28;20038;-66
2022/05/10 02:29:30;;;;;;;9.50;8.50;;;12.90;73.10;;;;;;4973445;28;20030;-66
2022/05/10 02:34:48;;;;;;;9.38;8.57;;;12.90;73.20;;;;;;4972740;28;20402;-65
2022/05/10 02:37:14;;;;;;;8.82;8.05;;;12.90;73.10;;;;;;4976912;28;20415;-66
2022/05/10 02:39:40;;;;;;;9.60;8.70;;;12.90;73.10;;;;;;4984568;28;20035;-64
2022/05/10 02:42:11;;;;;;;9.45;8.55;;;12.90;73.00;;;;;;4975051;28;20045;-65
2022/05/10 02:44:38;;;;;;;10.27;9.27;;;12.90;73.00;;;;;;4974588;28;20035;-65
2022/05/10 02:47:05;;;;;;;9.65;8.73;;;13.00;73.00;;;;;;4988384;28;20057;-65
2022/05/10 02:49:31;;;;;;;11.57;9.98;;;12.90;73.00;;;;;;4977649;28;20034;-65
2022/05/10 02:51:57;;;;;;;9.88;8.98;;;13.00;73.00;;;;;;4970117;28;20062;-66
2022/05/10 02:54:23;;;;;;;11.35;9.55;;;12.90;73.00;;;;;;4972843;28;20513;-65
2022/05/10 02:56:49;;;;;;;12.27;10.57;;;12.90;73.00;;;;;;4975445;28;20035;-65
2022/05/10 02:59:21;;;;;;;11.10;10.02;;;12.90;73.00;;;;;;4973766;28;20101;-65
2022/05/10 03:02:13;;;;;;;13.52;10.20;;;12.90;73.30;;;;;;4962672;28;20773;-66
2022/05/10 03:04:43;;;;;;;10.18;9.02;;;12.90;74.00;;;;;;4957020;28;20043;-65
2022/05/10 03:07:09;;;;;;;10.90;9.88;;;12.80;73.30;;;;;;4962938;28;20466;-66
2022/05/10 03:09:35;;;;;;;10.27;9.27;;;12.90;73.30;;;;;;4976037;28;20031;-66
2022/05/10 03:12:06;;;;;;;11.57;10.38;;;12.90;73.20;;;;;;4977257;28;20089;-65
2022/05/10 03:14:31;;;;;;;10.63;9.55;;;12.90;73.40;;;;;;4983074;28;20034;-66
2022/05/10 03:16:57;;;;;;;10.73;9.60;;;12.90;73.20;;;;;;4979331;28;20057;-65
2022/05/10 03:19:23;;;;;;;10.40;9.40;;;12.90;73.30;;;;;;4979255;28;20034;-66
2022/05/10 03:21:48;;;;;;;11.20;9.98;;;12.80;73.20;;;;;;4982496;28;20290;-66
2022/05/10 03:24:14;;;;;;;11.02;9.93;;;12.90;73.20;;;;;;4978445;28;20114;-66
2022/05/10 03:26:46;;;;;;;11.63;9.77;;;12.80;73.20;;;;;;4977837;28;20038;-66
2022/05/10 03:29:12;;;;;;;11.18;9.93;;;12.80;73.30;;;;;;4974518;28;20042;-66
2022/05/10 03:31:38;;;;;;;10.68;9.18;;;12.70;73.00;;;;;;4976035;28;20133;-66
2022/05/10 03:36:48;;;;;;;9.57;8.57;;;12.70;73.00;;;;;;4949904;28;20109;-66
2022/05/10 03:39:13;;;;;;;9.95;8.95;;;12.60;72.90;;;;;;4956587;28;20542;-65
2022/05/10 03:41:39;;;;;;;11.55;9.80;;;12.50;73.00;;;;;;4977557;28;20133;-65
2022/05/10 03:44:06;;;;;;;11.10;10.05;;;12.50;73.20;;;;;;4986366;28;20612;-66
2022/05/10 03:46:32;;;;;;;12.63;10.43;;;12.50;73.20;;;;;;4974181;28;20098;-65
2022/05/10 03:48:58;;;;;;;11.60;9.77;;;12.40;73.30;;;;;;4979164;28;20041;-66
2022/05/10 03:51:24;;;;;;;11.77;10.27;;;12.40;73.50;;;;;;4975589;28;20042;-65
2022/05/10 03:53:50;;;;;;;11.05;9.95;;;12.40;73.50;;;;;;4969556;28;20148;-66
2022/05/10 03:56:15;;;;;;;11.43;10.30;;;12.30;73.50;;;;;;4972483;28;20051;-65
2022/05/10 03:58:41;;;;;;;10.70;9.60;;;12.30;73.70;;;;;;4971028;28;20030;-66
2022/05/10 04:01:07;;;;;;;11.77;10.57;;;12.30;73.70;;;;;;4975175;28;20034;-64
2022/05/10 04:03:33;;;;;;;11.80;10.60;;;12.20;73.70;;;;;;4974535;28;20507;-65
2022/05/10 04:05:59;;;;;;;12.20;10.88;;;12.20;73.80;;;;;;4974301;28;20550;-65
2022/05/10 04:08:25;;;;;;;12.48;10.90;;;12.20;73.90;;;;;;4980605;28;20117;-65
2022/05/10 04:10:50;;;;;;;13.32;11.13;;;12.10;74.00;;;;;;4972561;28;20078;-66
2022/05/10 04:13:16;;;;;;;12.57;11.23;;;12.10;74.20;;;;;;4950788;28;20113;-64
2022/05/10 04:15:42;;;;;;;12.80;11.27;;;12.00;74.30;;;;;;4951229;28;20098;-66
2022/05/10 04:18:07;;;;;;;12.05;10.80;;;11.90;74.60;;;;;;4960979;28;20101;-63
2022/05/10 04:20:33;;;;;;;12.95;10.60;;;11.90;74.80;;;;;;4966387;28;20057;-64
2022/05/10 04:23:00;;;;;;;14.45;11.75;;;11.90;74.90;;;;;;4970232;28;20563;-66
2022/05/10 04:25:25;;;;;;;14.65;11.77;;;11.90;75.10;;;;;;4975774;28;20534;-65
2022/05/10 04:27:55;;;;;;;12.13;10.93;;;11.90;75.20;;;;;;4974815;28;20041;-66
2022/05/10 04:30:21;;;;;;;12.38;10.75;;;11.90;75.60;;;;;;4976802;28;20057;-66
2022/05/10 04:32:47;;;;;;;12.65;10.63;;;11.90;75.50;;;;;;4978372;28;20035;-66
2022/05/10 04:35:13;;;;;;;11.30;10.20;;;11.90;75.60;;;;;;4973176;28;20035;-66
2022/05/10 04:37:39;;;;;;;11.70;10.50;;;11.90;75.80;;;;;;4971440;28;20490;-66
2022/05/10 04:42:52;;;;;;;11.57;10.38;;;11.90;76.00;;;;;;4961722;28;20174;-65
2022/05/10 04:45:19;;;;;;;11.85;10.68;;;12.00;76.00;;;;;;4974037;28;20038;-65
2022/05/10 04:47:45;;;;;;;16.90;11.77;;;12.00;76.00;;;;;;4977052;28;20046;-65
2022/05/10 04:50:11;;;;;;;14.90;12.27;;;12.10;76.10;;;;;;4977585;28;20393;-65
2022/05/10 04:52:38;;;;;;;13.23;11.82;;;12.10;76.10;;;;;;4969740;28;20327;-66
2022/05/10 04:55:05;;;;;;;12.27;10.98;;;12.20;76.10;;;;;;4992885;28;20030;-65
2022/05/10 04:57:31;;;;;;;12.07;10.88;;;12.20;76.00;;;;;;4964829;28;20022;-66
2022/05/10 04:59:57;;;;;;;12.35;11.15;;;12.30;76.10;;;;;;4959131;28;20113;-65
2022/05/10 05:02:22;;;;;;;11.32;10.15;;;12.30;76.10;;;;;;4973391;28;20042;-66
2022/05/10 05:04:48;;;;;;;11.98;10.20;;;12.30;76.00;;;;;;4957895;28;20042;-65
2022/05/10 05:07:14;;;;;;;15.48;11.63;;;12.30;76.10;;;;;;4966642;28;20460;-66
2022/05/10 05:09:39;;;;;;;12.98;11.55;;;12.40;76.30;;;;;;4973562;28;20030;-66
2022/05/10 05:12:05;;;;;;;16.95;11.85;;;12.40;76.40;;;;;;4950818;28;20130;-66
2022/05/10 05:14:34;;;;;;;14.02;12.05;;;12.40;76.60;;;;;;4957014;28;20039;-66
2022/05/10 05:16:59;;;;;;;13.55;12.15;;;12.40;76.90;;;;;;4958772;28;20034;-65
2022/05/10 05:19:25;;;;;;;13.73;12.02;;;12.40;78.00;;;;;;4960054;28;20061;-68
2022/05/10 05:21:51;;;;;;;18.70;12.88;;;12.50;77.50;;;;;;4951541;28;20123;-68
2022/05/10 05:24:17;;;;;;;14.02;12.57;;;12.50;77.70;;;;;;4959656;28;20031;-67
2022/05/10 05:26:42;;;;;;;15.43;13.73;;;12.50;78.00;;;;;;4952777;28;20042;-68
2022/05/10 05:29:08;;;;;;;18.55;13.65;;;12.60;78.20;;;;;;4959045;28;20043;-67
2022/05/10 05:31:34;;;;;;;16.48;12.98;;;12.60;78.60;;;;;;4966706;28;20030;-67
2022/05/10 05:34:00;;;;;;;17.70;14.18;;;12.70;78.70;;;;;;4974700;28;20243;-68
2022/05/10 05:36:25;;;;;;;15.02;13.25;;;12.70;78.90;;;;;;4977480;28;20065;-65
2022/05/10 05:38:51;;;;;;;14.05;12.02;;;12.80;78.90;;;;;;4969187;28;20384;-64
2022/05/10 05:41:20;;;;;;;15.82;14.10;;;12.90;78.80;;;;;;4972399;28;20046;-65
2022/05/10 05:43:45;;;;;;;16.42;14.65;;;13.00;79.10;;;;;;4976106;28;20034;-63
2022/05/10 05:46:11;;;;;;;17.08;15.27;;;13.10;78.90;;;;;;4993421;28;20057;-66
2022/05/10 05:48:37;;;;;;;17.20;15.32;;;13.20;79.10;;;;;;4973405;28;20097;-65
2022/05/10 05:51:04;;;;;;;16.90;14.95;;;13.30;79.00;;;;;;4977697;28;20067;-65
2022/05/10 05:53:29;;;;;;;17.48;14.57;;;13.30;78.90;;;;;;4971475;28;20511;-65
2022/05/10 05:56:10;;;;;;;16.92;15.18;;;13.40;79.00;;;;;;4973626;28;20034;-65
2022/05/10 05:58:38;;;;;;;17.17;14.60;;;13.50;80.40;;;;;;4977829;28;20042;-66
2022/05/10 06:01:15;;;;;;;17.70;15.18;;;13.60;78.80;;;;;;4993177;28;20030;-66
2022/05/10 06:03:42;;;;;;;16.55;14.75;;;13.70;79.50;;;;;;4987789;28;20034;-65
2022/05/10 06:06:09;;;;;;;17.73;15.82;;;13.80;79.10;;;;;;4984483;28;20042;-66
2022/05/10 06:08:34;;;;;;;16.98;15.15;;;13.90;79.10;;;;;;4973362;28;20046;-65
2022/05/10 06:11:00;;;;;;;17.38;15.48;;;14.00;79.00;;;;;;4970841;28;20473;-65
2022/05/10 06:13:27;;;;;;;17.02;15.23;;;14.10;79.00;;;;;;4978979;28;20042;-66
2022/05/10 06:15:53;;;;;;;16.17;13.75;;;14.10;78.90;;;;;;4976497;28;20034;-65
2022/05/10 06:18:18;;;;;;;15.45;13.85;;;14.30;78.90;;;;;;4979181;28;20065;-66
2022/05/10 06:20:44;;;;;;;14.13;12.75;;;14.30;78.80;;;;;;4980150;28;20043;-66
2022/05/10 06:23:10;;;;;;;14.65;13.13;;;14.40;78.70;;;;;;4980518;28;20053;-66
2022/05/10 06:25:37;;;;;;;14.82;12.63;;;14.50;78.60;;;;;;4966857;28;20031;-66
2022/05/10 06:28:04;;;;;;;15.80;13.00;;;14.60;78.40;;;;;;4958237;28;20034;-66
2022/05/10 06:30:30;;;;;;;13.93;12.52;;;14.70;78.20;;;;;;4977621;28;20038;-66
2022/05/10 06:32:58;;;;;;;14.18;11.75;;;14.80;78.10;;;;;;4960722;28;20023;-66
2022/05/10 06:35:24;;;;;;;13.27;11.50;;;14.90;78.00;;;;;;4969757;28;20572;-67
2022/05/10 06:40:35;;;;;;;12.35;10.88;;;15.10;77.60;;;;;;4974781;28;20568;-67
2022/05/10 06:43:01;;;;;;;15.00;10.80;;;15.10;77.20;;;;;;4980911;28;20038;-68
2022/05/10 06:45:27;;;;;;;12.70;10.25;;;15.20;76.90;;;;;;4980063;28;20037;-66
2022/05/10 06:47:53;;;;;;;13.23;9.95;;;15.40;77.10;;;;;;4984917;28;20462;-66
2022/05/10 06:50:21;;;;;;;10.45;7.95;;;15.40;77.00;;;;;;4979407;28;20042;-66
2022/05/10 06:52:57;;;;;;;11.80;9.18;;;15.60;76.70;;;;;;4980537;28;20042;-66
2022/05/10 06:55:24;;;;;;;9.30;6.78;;;15.60;76.30;;;;;;4978250;28;20578;-66
2022/05/10 06:57:50;;;;;;;7.28;5.07;;;15.80;76.10;;;;;;4979264;28;20518;-66
2022/05/10 07:00:17;;;;;;;9.40;7.18;;;15.90;76.00;;;;;;4985944;28;20031;-66
2022/05/10 07:02:43;;;;;;;4.32;3.92;;;16.00;75.70;;;;;;4977936;28;20030;-66
2022/05/10 07:05:11;;;;;;;3.60;3.30;;;16.10;75.10;;;;;;4980852;28;20042;-66
2022/05/10 07:07:37;;;;;;;3.25;2.85;;;16.20;74.50;;;;;;4980281;28;20445;-66
2022/05/10 07:10:10;;;;;;;8.23;3.30;;;16.30;74.00;;;;;;4992673;28;20568;-65
2022/05/10 07:12:38;;;;;;;3.33;2.80;;;16.40;73.50;;;;;;4972670;28;20164;-66
2022/05/10 07:15:06;;;;;;;4.13;2.60;;;16.50;73.30;;;;;;4975162;28;20491;-66
2022/05/10 07:17:32;;;;;;;2.95;2.70;;;16.70;72.70;;;;;;4981137;28;20037;-67
2022/05/10 07:19:57;;;;;;;3.58;2.50;;;16.80;72.30;;;;;;4976388;28;20031;-66
2022/05/10 07:22:25;;;;;;;2.72;2.53;;;16.90;71.80;;;;;;4975397;28;20542;-64
2022/05/10 07:24:51;;;;;;;4.75;2.83;;;17.00;71.60;;;;;;4958308;28;20028;-66
2022/05/10 07:27:17;;;;;;;2.85;2.58;;;17.10;71.10;;;;;;4966119;28;20043;-66
2022/05/10 07:29:43;;;;;;;6.88;2.45;;;17.30;70.70;;;;;;4972820;28;20041;-66
2022/05/10 07:32:10;;;;;;;2.47;2.28;;;17.40;70.60;;;;;;4990975;28;20395;-66
2022/05/10 07:34:36;;;;;;;3.75;2.58;;;17.50;70.30;;;;;;4979029;28;20022;-66
2022/05/10 07:37:01;;;;;;;4.60;2.83;;;17.60;70.00;;;;;;4978733;28;20515;-66
2022/05/10 07:39:27;;;;;;;7.32;4.85;;;17.70;69.80;;;;;;4979421;28;20027;-66
2022/05/10 07:41:54;;;;;;;8.05;5.60;;;17.80;70.20;;;;;;4979397;28;20069;-67
2022/05/10 07:44:22;;;;;;;6.57;5.68;;;17.90;70.70;;;;;;4977403;28;20673;-66
2022/05/10 07:46:48;;;;;;;5.50;5.00;;;18.00;70.80;;;;;;4979852;28;20105;-66
2022/05/10 07:49:14;;;;;;;5.63;5.13;;;18.10;70.70;;;;;;4993826;28;20043;-66
2022/05/10 07:51:39;;;;;;;6.22;5.45;;;18.20;70.70;;;;;;4978420;28;20392;-66
2022/05/10 07:54:05;;;;;;;5.00;4.60;;;18.30;70.50;;;;;;4978209;28;20047;-67
2022/05/10 07:56:31;;;;;;;8.35;4.95;;;18.30;70.20;;;;;;4969788;28;20042;-64
2022/05/10 07:58:57;;;;;;;5.68;5.07;;;18.50;69.80;;;;;;4978189;28;20421;-64
2022/05/10 08:01:24;;;;;;;6.88;4.28;;;18.60;69.30;;;;;;4976040;28;20038;-65
2022/05/10 08:03:50;;;;;;;5.32;4.90;;;18.60;68.80;;;;;;4992995;28;20117;-66
2022/05/10 08:06:16;;;;;;;6.72;4.07;;;18.70;68.60;;;;;;4986321;28;20109;-66
2022/05/10 08:08:42;;;;;;;6.63;4.80;;;18.80;68.20;;;;;;4977518;28;20035;-66
2022/05/10 08:11:09;;;;;;;5.32;3.30;;;18.90;68.50;;;;;;4976095;28;20074;-66
2022/05/10 08:13:37;;;;;;;5.20;2.72;;;19.00;67.80;;;;;;4975617;28;20037;-66
2022/05/10 08:16:03;;;;;;;2.50;2.30;;;19.10;67.20;;;;;;4974515;28;20061;-66
2022/05/10 08:18:29;;;;;;;2.58;2.33;;;19.20;66.20;;;;;;4979617;28;20037;-66
2022/05/10 08:20:59;;;;;;;2.50;2.00;;;19.30;65.50;;;;;;4979444;28;20035;-67
2022/05/10 08:23:28;;;;;;;2.17;1.90;;;19.40;64.30;;;;;;4981897;28;20034;-66
2022/05/10 08:25:55;;;;;;;5.18;2.30;;;19.50;64.00;;;;;;4973627;28;20039;-66
2022/05/10 08:28:22;;;;;;;4.93;4.20;;;19.60;64.00;;;;;;4973593;28;20533;-66
2022/05/10 08:30:48;;;;;;;5.60;4.50;;;19.60;64.40;;;;;;4985006;28;20048;-66
2022/05/10 08:33:23;;;;;;;7.72;4.43;;;19.70;64.90;;;;;;4990113;28;20034;-67
2022/05/10 08:35:49;;;;;;;6.13;4.10;;;19.80;65.30;;;;;;4979443;28;20263;-65
2022/05/10 08:38:16;;;;;;;4.40;4.00;;;19.80;65.50;;;;;;4978365;28;20595;-66
2022/05/10 08:41:01;;;;;;;4.50;3.50;;;19.90;65.30;;;;;;4974856;28;20031;-66
2022/05/10 08:43:37;;;;;;;3.50;3.20;;;20.00;63.60;;;;;;4981565;28;20464;-66
2022/05/10 08:46:06;;;;;;;3.88;3.50;;;20.10;63.10;;;;;;4978541;28;20031;-66
2022/05/10 08:48:32;;;;;;;3.00;2.72;;;20.20;64.20;;;;;;4977224;28;20028;-67
2022/05/10 08:50:59;;;;;;;3.70;3.33;;;20.30;64.30;;;;;;4979578;28;20537;-66
2022/05/10 08:53:25;;;;;;;3.97;3.30;;;20.40;64.20;;;;;;4976550;28;20044;-66
2022/05/10 08:56:13;;;;;;;3.97;3.38;;;20.50;64.10;;;;;;4972358;28;20035;-67
2022/05/10 08:58:47;;;;;;;4.35;3.20;;;20.60;62.50;;;;;;4974333;28;20039;-65
2022/05/10 09:01:21;;;;;;;3.30;3.00;;;20.70;62.60;;;;;;4979287;28;20031;-67
2022/05/10 09:04:14;;;;;;;4.13;2.30;;;20.80;61.90;;;;;;4978534;28;20494;-67
2022/05/10 09:07:03;;;;;;;3.58;2.55;;;20.90;61.20;;;;;;4977992;28;20092;-66
2022/05/10 09:09:32;;;;;;;3.42;2.55;;;21.00;62.00;;;;;;4992194;28;20457;-66
2022/05/10 09:12:18;;;;;;;2.50;2.30;;;21.10;61.70;;;;;;4972574;28;20042;-66
2022/05/10 09:14:56;;;;;;;2.60;2.00;;;21.30;60.00;;;;;;4974431;28;20531;-66
2022/05/10 09:17:25;;;;;;;3.65;2.38;;;21.40;59.70;;;;;;4979063;28;20046;-66
2022/05/10 09:19:51;;;;;;;3.88;2.20;;;21.50;59.80;;;;;;4978183;28;20033;-66
2022/05/10 09:22:42;;;;;;;2.42;2.22;;;21.60;59.30;;;;;;4979468;28;20081;-66
2022/05/10 09:25:37;;;;;;;4.10;2.40;;;21.70;58.40;;;;;;4991335;28;20046;-66
2022/05/10 09:28:28;;;;;;;2.60;2.13;;;21.90;58.10;;;;;;4977866;28;20043;-66
2022/05/10 09:36:31;;;;;;;2.90;2.60;;;22.10;58.20;;;;;;4970541;28;20651;-67
2022/05/10 09:39:28;;;;;;;2.88;2.45;;;22.20;57.00;;;;;;4975321;28;20047;-66
2022/05/10 09:41:54;;;;;;;3.50;2.67;;;22.30;57.00;;;;;;4978736;28;20046;-66
2022/05/10 09:44:22;;;;;;;3.22;2.70;;;22.30;57.20;;;;;;4975530;28;20148;-66
2022/05/10 09:46:48;;;;;;;4.05;2.65;;;22.40;57.00;;;;;;4981705;28;20511;-66
2022/05/10 09:49:35;;;;;;;4.35;2.70;;;22.40;57.00;;;;;;4982978;28;20109;-67
2022/05/10 09:52:01;;;;;;;4.50;2.63;;;22.50;56.00;;;;;;4978066;28;20050;-66
2022/05/10 09:54:32;;;;;;;3.50;2.47;;;22.60;56.80;;;;;;4980508;28;20195;-67
2022/05/10 09:56:58;;;;;;;4.28;2.70;;;22.70;56.00;;;;;;4982077;28;20039;-67
2022/05/10 09:59:28;;;;;;;3.15;2.85;;;22.70;56.40;;;;;;4980378;28;20057;-68
2022/05/10 10:01:56;;;;;;;3.20;2.50;;;22.80;56.10;;;;;;4981168;28;20045;-66
2022/05/10 10:04:32;;;;;;;2.83;2.58;;;22.90;56.10;;;;;;4976394;28;20510;-67
2022/05/10 10:07:17;;;;;;;5.05;2.90;;;23.00;55.20;;;;;;4979114;28;20031;-67
2022/05/10 10:09:46;;;;;;;3.35;2.83;;;23.10;53.80;;;;;;4979610;28;20088;-66
2022/05/10 10:12:37;;;;;;;3.70;2.90;;;23.20;54.60;;;;;;4977223;28;20046;-67
2022/05/10 10:15:22;;;;;;;2.95;2.63;;;23.20;52.80;;;;;;4976785;28;20372;-67
2022/05/10 10:17:55;;;;;;;;;;;23.30;53.70;;;;;;4977912;28;20039;-68
2022/05/10 10:20:46;;;;;;;3.10;2.90;;;23.30;55.40;;;;;;4982692;28;19910;-67
2022/05/10 10:23:40;;;;;;;3.10;2.90;;;23.40;52.60;;;;;;4975065;28;20058;-67
2022/05/10 10:26:26;;;;;;;4.03;2.88;;;23.40;51.90;;;;;;4977513;28;20053;-67
2022/05/10 10:29:04;;;;;;;3.08;2.78;;;23.50;52.00;;;;;;4993909;28;20529;-67
2022/05/10 10:31:38;;;;;;;3.00;2.80;;;23.50;52.80;;;;;;4975460;28;20101;-67
2022/05/10 10:34:19;;;;;;;3.42;3.13;;;23.60;52.50;;;;;;4981535;28;20494;-67
2022/05/10 10:36:56;;;;;;;3.00;2.70;;;23.60;52.00;;;;;;4976371;28;20042;-66
2022/05/10 10:39:29;;;;;;;2.75;2.55;;;23.60;52.00;;;;;;4975937;28;20522;-67
2022/05/10 10:41:56;;;;;;;2.92;2.72;;;23.70;52.20;;;;;;4978049;28;20042;-67
2022/05/10 10:44:29;;;;;;;9.85;3.63;;;23.80;52.30;;;;;;4975961;28;20038;-68
2022/05/10 10:47:27;;;;;;;4.38;2.78;;;23.90;51.90;;;;;;4973110;28;20038;-66
2022/05/10 10:49:57;;;;;;;3.35;2.70;;;23.90;51.00;;;;;;4980568;28;20060;-66
2022/05/10 10:52:23;;;;;;;2.80;2.60;;;24.00;51.20;;;;;;4979731;28;20584;-67
2022/05/10 10:54:49;;;;;;;3.00;2.80;;;24.10;51.30;;;;;;4975531;28;20407;-66
2022/05/10 10:57:24;;;;;;;3.03;2.47;;;24.10;51.10;;;;;;4977271;28;20093;-67
2022/05/10 11:00:08;;;;;;;2.95;2.70;;;24.20;50.30;;;;;;4979181;28;20031;-66
2022/05/10 11:02:54;;;;;;;3.00;2.70;;;24.20;49.80;;;;;;4975289;28;20056;-67
2022/05/10 11:05:35;;;;;;;3.40;3.10;;;24.30;49.60;;;;;;4980384;28;20297;-67
2022/05/10 11:08:17;;;;;;;4.65;2.70;;;24.40;50.60;;;;;;4979401;28;20034;-67
2022/05/10 11:11:11;;;;;;;2.42;2.22;;;24.40;49.10;;;;;;4976206;28;20030;-67
2022/05/10 11:13:36;;;;;;;3.13;2.35;;;24.40;48.30;;;;;;4977777;28;20039;-66
2022/05/10 11:16:11;;;;;;;4.03;2.72;;;24.50;49.80;;;;;;4975141;28;20085;-65
2022/05/10 11:18:49;;;;;;;;;;;24.50;48.90;;;;;;4977673;28;20031;-66
2022/05/10 11:21:38;;;;;;;2.50;2.30;;;24.60;50.70;;;;;;4981140;28;19956;-66
2022/05/10 11:24:16;;;;;;;3.22;2.33;;;24.60;50.00;;;;;;4976829;28;20058;-67
2022/05/10 11:27:00;;;;;;;2.60;2.40;;;24.60;49.30;;;;;;4980177;28;20038;-67
2022/05/10 11:29:32;;;;;;;15.60;2.72;;;24.60;49.00;;;;;;4977963;28;20154;-66
2022/05/10 11:32:13;;;;;;;3.25;2.30;;;24.70;48.40;;;;;;4975896;28;20088;-66
2022/05/10 11:35:16;;;;;;;2.10;2.00;;;24.70;47.70;;;;;;4979110;28;20085;-66
2022/05/10 11:37:59;;;;;;;2.10;2.00;;;24.70;48.00;;;;;;4976357;28;20039;-66
2022/05/10 11:40:33;;;;;;;2.50;2.38;;;24.70;47.50;;;;;;4980458;28;20026;-67
2022/05/10 11:43:49;;;;;;;2.13;2.03;;;24.70;48.50;;;;;;4976425;28;20042;-67
2022/05/10 11:46:49;;;;;;;2.83;1.98;;;24.70;48.00;;;;;;4976621;28;20035;-67
2022/05/10 11:49:24;;;;;;;2.13;1.90;;;24.80;47.90;;;;;;4975575;28;20102;-67
2022/05/10 11:52:13;;;;;;;;;;;24.80;47.30;;;;;;4978445;28;20262;-66
2022/05/10 11:54:47;;;;;;;2.22;1.95;;;24.90;49.50;;;;;;4978420;28;20554;-67
2022/05/10 11:57:16;;;;;;;2.38;2.00;;;25.00;47.70;;;;;;4981041;28;20039;-67
2022/05/10 11:59:44;;;;;;;2.00;1.90;;;25.00;47.80;;;;;;4979652;28;20034;-66
2022/05/10 12:02:27;;;;;;;1.70;1.60;;;25.00;47.00;;;;;;4976390;28;20034;-67
2022/05/10 12:05:14;;;;;;;2.30;1.80;;;25.00;45.50;;;;;;4975338;28;20053;-66
2022/05/10 12:07:48;;;;;;;1.95;1.15;;;25.10;45.60;;;;;;4976908;28;20030;-66
2022/05/10 12:10:36;;;;;;;1.50;1.40;;;25.10;45.80;;;;;;4974835;28;20046;-67
2022/05/10 12:13:11;;;;;;;2.20;1.67;;;25.20;43.60;;;;;;4978217;28;20058;-67
2022/05/10 12:21:24;;;;;;;2.50;1.80;;;25.30;44.20;;;;;;4981012;28;20037;-67
2022/05/10 12:24:11;;;;;;;2.35;2.08;;;25.30;44.00;;;;;;4978127;28;20038;-67
2022/05/10 12:26:46;;;;;;;2.08;1.98;;;25.30;43.40;;;;;;4992714;28;20035;-67
2022/05/10 12:29:39;;;;;;;1.90;1.80;;;25.30;44.00;;;;;;4978254;28;20031;-67
2022/05/10 12:32:27;;;;;;;2.50;1.90;;;25.30;44.10;;;;;;4979285;28;20035;-66
2022/05/10 12:35:04;;;;;;;2.53;2.00;;;25.30;44.80;;;;;;4978629;28;20035;-66
2022/05/10 12:37:44;;;;;;;4.05;1.90;;;25.30;44.20;;;;;;5083540;27;20518;-66
2022/05/10 12:40:09;;;;;;;1.88;1.77;;;25.40;44.50;;;;;;5106975;28;20037;-66
2022/05/10 12:42:51;;;;;;;2.75;1.80;;;25.40;44.80;;;;;;5072886;27;20033;-66
2022/05/10 12:45:37;;;;;;;3.60;2.00;;;25.50;44.40;;;;;;5073622;27;20395;-66
2022/05/10 12:48:06;;;;;;;3.22;2.20;;;25.50;42.80;;;;;;5073136;28;20040;-66
2022/05/10 12:50:58;;;;;;;2.22;2.03;;;25.50;42.90;;;;;;5072867;27;20063;-66
2022/05/10 12:53:29;;;;;;;3.15;2.05;;;25.60;41.90;;;;;;5072531;28;20098;-65
2022/05/10 12:56:25;;;;;;;4.03;2.10;;;25.50;42.50;;;;;;5072633;28;20039;-66
2022/05/10 12:58:53;;;;;;;2.25;2.00;;;25.50;42.60;;;;;;5072412;28;20028;-66
2022/05/10 13:01:23;;;;;;;2.15;1.98;;;25.50;43.80;;;;;;5072961;27;20108;-66
2022/05/10 13:03:56;;;;;;;1.90;1.80;;;25.50;43.60;;;;;;5072527;28;20511;-66
2022/05/10 13:06:44;;;;;;;4.13;2.10;;;25.50;43.30;;;;;;5072720;27;20418;-66
2022/05/10 13:09:37;;;;;;;2.60;2.10;;;25.60;42.80;;;;;;5072829;28;20025;-66
2022/05/10 13:12:08;;;;;;;1.95;1.85;;;25.60;42.40;;;;;;5069751;28;20070;-67
2022/05/10 13:14:43;;;;;;;4.05;2.10;;;25.60;43.20;;;;;;5066262;27;20511;-66
2022/05/10 13:17:18;;;;;;;2.10;1.90;;;25.70;43.60;;;;;;5070692;27;20062;-66
2022/05/10 13:19:44;;;;;;;2.50;1.80;;;25.70;43.40;;;;;;5073367;28;20519;-66
2022/05/10 13:22:14;;;;;;;2.30;1.83;;;25.70;43.50;;;;;;5068345;27;20036;-66
2022/05/10 13:24:48;;;;;;;2.08;1.90;;;25.70;43.00;;;;;;5065375;27;20103;-66
2022/05/10 13:27:30;;;;;;;2.05;1.95;;;25.80;43.00;;;;;;5065337;28;20462;-66
2022/05/10 13:30:17;;;;;;;2.67;1.80;;;25.80;42.90;;;;;;5068664;27;20036;-66